Time;durP1;ratioP1;P1;durP2;ratioP2;P2;SDS_P1;SDS_P2;PMS_P1;PMS_P2;Temp;Humidity;BMP_temperature;BMP_pressure;BME280_temperature;BME280_humidity;BME280_pressure;Samples;Min_cycle;Max_cycle;Signal;HPM_P1;HPM_P2
2024/01/22 00:01:08;;;;;;;6.70;3.20;;;;;;;;;;5142798;27;20070;-73
2024/01/22 00:03:35;;;;;;;8.35;3.40;;;;;;;;;;5142392;27;20077;-74
2024/01/22 00:06:02;;;;;;;9.25;3.67;;;;;;;;;;5142272;27;20453;-75
2024/01/22 00:08:29;;;;;;;8.32;3.38;;;;;;;;;;5142383;27;20043;-74
2024/01/22 00:10:56;;;;;;;7.82;3.08;;;;;;;;;;5141984;27;20055;-73
2024/01/22 00:13:22;;;;;;;8.07;3.20;;;;;;;;;;5141803;27;20119;-73
2024/01/22 00:15:49;;;;;;;8.43;3.17;;;;;;;;;;5142483;27;20291;-76
2024/01/22 00:18:16;;;;;;;7.97;3.35;;;;;;;;;;5140659;27;20043;-73
2024/01/22 00:20:43;;;;;;;6.88;3.00;;;;;;;;;;5142028;27;20043;-73
2024/01/22 00:23:11;;;;;;;7.75;3.35;;;;;;;;;;5142188;27;20124;-73
2024/01/22 00:25:38;;;;;;;8.48;3.35;;;;;;;;;;5141781;27;20057;-73
2024/01/22 00:28:06;;;;;;;7.95;3.08;;;;;;;;;;5142141;27;20047;-73
2024/01/22 00:30:32;;;;;;;9.50;3.05;;;;;;;;;;5142254;27;20051;-73
2024/01/22 00:32:59;;;;;;;7.18;3.22;;;;;;;;;;5141684;27;20378;-72
2024/01/22 00:35:27;;;;;;;8.18;2.97;;;;;;;;;;5141706;27;20088;-75
2024/01/22 00:37:54;;;;;;;8.70;3.08;;;;;;;;;;5141860;27;20050;-73
2024/01/22 00:40:21;;;;;;;7.75;3.33;;;;;;;;;;5141295;27;20047;-73
2024/01/22 00:42:47;;;;;;;6.45;3.33;;;;;;;;;;5141749;27;20242;-72
2024/01/22 00:45:14;;;;;;;7.63;3.10;;;;;;;;;;5141952;27;20099;-76
2024/01/22 00:47:41;;;;;;;5.78;2.83;;;;;;;;;;5141697;27;20064;-73
2024/01/22 00:50:08;;;;;;;5.10;2.50;;;;;;;;;;5124155;27;20047;-75
2024/01/22 00:52:35;;;;;;;7.90;2.97;;;;;;;;;;5141737;27;20093;-73
2024/01/22 00:55:02;;;;;;;5.50;2.70;;;;;;;;;;5140924;27;20297;-73
2024/01/22 00:57:28;;;;;;;7.57;2.70;;;;;;;;;;5141918;27;20043;-72
2024/01/22 00:59:55;;;;;;;8.23;3.03;;;;;;;;;;5141301;27;20043;-73
2024/01/22 01:02:22;;;;;;;8.32;2.60;;;;;;;;;;5141112;27;20335;-73
2024/01/22 01:04:48;;;;;;;6.03;2.72;;;;;;;;;;5141388;27;20041;-73
2024/01/22 01:07:15;;;;;;;9.13;2.95;;;;;;;;;;5141167;27;20361;-73
2024/01/22 01:09:42;;;;;;;6.05;2.70;;;;;;;;;;5140670;27;20089;-74
2024/01/22 01:12:09;;;;;;;9.75;2.75;;;;;;;;;;5141423;27;20376;-73
2024/01/22 01:14:36;;;;;;;7.03;2.50;;;;;;;;;;5141061;27;20078;-76
2024/01/22 01:17:03;;;;;;;4.70;2.17;;;;;;;;;;5141167;27;20243;-73
2024/01/22 01:19:29;;;;;;;7.25;2.75;;;;;;;;;;5141164;27;20264;-74
2024/01/22 01:21:56;;;;;;;5.43;2.50;;;;;;;;;;5141232;28;20088;-76
2024/01/22 01:24:23;;;;;;;5.82;2.47;;;;;;;;;;5140482;27;20050;-73
2024/01/22 01:26:50;;;;;;;7.43;2.60;;;;;;;;;;5123123;28;20047;-76
2024/01/22 01:29:16;;;;;;;5.35;2.60;;;;;;;;;;5140883;27;20322;-74
2024/01/22 01:31:43;;;;;;;5.22;2.42;;;;;;;;;;5141110;28;20074;-73
2024/01/22 01:34:10;;;;;;;6.95;2.45;;;;;;;;;;5122892;28;20057;-74
2024/01/22 01:36:37;;;;;;;5.75;2.50;;;;;;;;;;5141278;28;20043;-73
2024/01/22 01:39:04;;;;;;;6.40;2.38;;;;;;;;;;5140878;28;20075;-74
2024/01/22 01:41:31;;;;;;;6.13;2.60;;;;;;;;;;5141497;28;20051;-73
2024/01/22 01:43:58;;;;;;;4.88;2.55;;;;;;;;;;5141072;28;20043;-74
2024/01/22 01:46:25;;;;;;;5.03;2.20;;;;;;;;;;5141248;28;20208;-72
2024/01/22 01:48:52;;;;;;;4.40;2.20;;;;;;;;;;5140981;28;20302;-73
2024/01/22 01:51:19;;;;;;;5.10;2.30;;;;;;;;;;5140940;28;20099;-73
2024/01/22 01:53:47;;;;;;;5.35;2.20;;;;;;;;;;5141215;28;20046;-75
2024/01/22 01:56:14;;;;;;;6.55;2.03;;;;;;;;;;5140800;28;20043;-74
2024/01/22 01:58:42;;;;;;;4.38;2.10;;;;;;;;;;5140917;28;20049;-74
2024/01/22 02:01:08;;;;;;;4.18;2.10;;;;;;;;;;5141004;28;20058;-72
2024/01/22 02:03:35;;;;;;;4.88;2.30;;;;;;;;;;5140678;28;20385;-74
2024/01/22 02:06:02;;;;;;;6.45;2.58;;;;;;;;;;5141302;28;20043;-73
2024/01/22 02:08:29;;;;;;;4.25;2.17;;;;;;;;;;5141520;28;20085;-73
2024/01/22 02:10:56;;;;;;;5.05;1.92;;;;;;;;;;5140385;28;20406;-73
2024/01/22 02:13:25;;;;;;;4.32;1.95;;;;;;;;;;5140897;28;20051;-73
2024/01/22 02:15:53;;;;;;;5.25;2.10;;;;;;;;;;5140994;28;20043;-72
2024/01/22 02:18:20;;;;;;;3.42;1.92;;;;;;;;;;5140985;28;20043;-73
2024/01/22 02:20:47;;;;;;;3.75;1.95;;;;;;;;;;5141036;28;20043;-73
2024/01/22 02:23:14;;;;;;;5.80;1.90;;;;;;;;;;5140798;28;20050;-74
2024/01/22 02:25:40;;;;;;;3.83;2.20;;;;;;;;;;5140757;28;20050;-73
2024/01/22 02:28:07;;;;;;;7.53;2.20;;;;;;;;;;5142699;27;20054;-73
2024/01/22 02:30:34;;;;;;;4.82;1.90;;;;;;;;;;5144824;27;20111;-73
2024/01/22 02:33:00;;;;;;;3.90;1.85;;;;;;;;;;5144314;27;20335;-74
2024/01/22 02:35:27;;;;;;;5.03;2.40;;;;;;;;;;5144665;27;20043;-73
2024/01/22 02:37:54;;;;;;;5.13;2.10;;;;;;;;;;5144532;27;20057;-73
2024/01/22 02:40:20;;;;;;;4.65;2.30;;;;;;;;;;5144178;27;20043;-73
2024/01/22 02:42:47;;;;;;;4.88;2.20;;;;;;;;;;5144393;27;20051;-73
2024/01/22 02:45:14;;;;;;;5.65;2.25;;;;;;;;;;5144380;27;20066;-73
2024/01/22 02:47:41;;;;;;;5.07;2.10;;;;;;;;;;5144606;27;20067;-74
2024/01/22 02:50:08;;;;;;;7.03;2.40;;;;;;;;;;5123931;28;20046;-73
2024/01/22 02:52:35;;;;;;;6.10;2.30;;;;;;;;;;5123384;28;20051;-73
2024/01/22 02:55:01;;;;;;;5.40;2.20;;;;;;;;;;5122968;28;20107;-73
2024/01/22 02:57:28;;;;;;;5.28;2.17;;;;;;;;;;5123643;28;20044;-73
2024/01/22 02:59:55;;;;;;;5.07;2.08;;;;;;;;;;5123683;28;20050;-73
2024/01/22 03:02:22;;;;;;;7.22;2.20;;;;;;;;;;5123725;28;20075;-73
2024/01/22 03:04:48;;;;;;;3.72;1.88;;;;;;;;;;5123525;28;20043;-73
2024/01/22 03:07:15;;;;;;;6.55;2.10;;;;;;;;;;5123522;28;20075;-73
2024/01/22 03:09:42;;;;;;;4.13;2.05;;;;;;;;;;5122577;28;20048;-73
2024/01/22 03:12:09;;;;;;;6.90;2.00;;;;;;;;;;5123406;28;20043;-74
2024/01/22 03:14:36;;;;;;;5.88;2.00;;;;;;;;;;5122734;28;20059;-75
2024/01/22 03:17:03;;;;;;;4.57;2.17;;;;;;;;;;5123384;28;20071;-73
2024/01/22 03:19:30;;;;;;;4.50;2.08;;;;;;;;;;5123188;28;20043;-73
2024/01/22 03:21:57;;;;;;;3.95;2.10;;;;;;;;;;5123075;28;20488;-73
2024/01/22 03:24:23;;;;;;;5.05;2.05;;;;;;;;;;5122628;28;20233;-73
2024/01/22 03:26:50;;;;;;;4.85;2.03;;;;;;;;;;5122840;28;20040;-75
2024/01/22 03:29:17;;;;;;;4.50;1.92;;;;;;;;;;5122776;28;20059;-72
2024/01/22 03:31:44;;;;;;;4.38;2.30;;;;;;;;;;5122718;28;20044;-73
2024/01/22 03:34:10;;;;;;;5.53;2.22;;;;;;;;;;5122547;28;20096;-73
2024/01/22 03:36:37;;;;;;;4.82;2.10;;;;;;;;;;5104771;28;20044;-73
2024/01/22 03:39:04;;;;;;;4.95;2.22;;;;;;;;;;5121869;28;20066;-73
2024/01/22 03:41:31;;;;;;;6.78;2.10;;;;;;;;;;5122541;28;20059;-73
2024/01/22 03:43:59;;;;;;;6.00;2.15;;;;;;;;;;5104785;28;20050;-73
2024/01/22 03:46:25;;;;;;;8.15;2.13;;;;;;;;;;5122626;28;20332;-72
2024/01/22 03:48:52;;;;;;;4.57;1.98;;;;;;;;;;5132589;27;20183;-73
2024/01/22 03:51:19;;;;;;;6.78;2.00;;;;;;;;;;5125271;27;20039;-73
2024/01/22 03:53:46;;;;;;;3.58;1.80;;;;;;;;;;5143195;27;20059;-73
2024/01/22 03:56:13;;;;;;;6.05;1.80;;;;;;;;;;5142514;27;20043;-73
2024/01/22 03:58:40;;;;;;;5.97;2.05;;;;;;;;;;5142981;27;20043;-74
2024/01/22 04:01:07;;;;;;;5.25;2.30;;;;;;;;;;5142918;27;20106;-73
2024/01/22 04:03:35;;;;;;;3.92;1.83;;;;;;;;;;5142397;27;20058;-73
2024/01/22 04:06:03;;;;;;;4.47;1.80;;;;;;;;;;5142527;27;20105;-74
2024/01/22 04:08:30;;;;;;;4.10;2.13;;;;;;;;;;5142896;27;20177;-73
2024/01/22 04:10:57;;;;;;;5.95;1.77;;;;;;;;;;5142280;27;20050;-73
2024/01/22 04:13:24;;;;;;;6.95;2.22;;;;;;;;;;5142657;27;20242;-74
2024/01/22 04:16:00;;;;;;;4.40;1.83;;;;;;;;;;5142436;27;20121;-72
2024/01/22 04:18:27;;;;;;;5.85;2.05;;;;;;;;;;5142827;27;20051;-73
2024/01/22 04:20:54;;;;;;;5.80;2.20;;;;;;;;;;5142162;27;20288;-73
2024/01/22 04:23:21;;;;;;;6.85;2.10;;;;;;;;;;5142574;27;20047;-74
2024/01/22 04:25:47;;;;;;;7.65;2.22;;;;;;;;;;5142102;27;20130;-73
2024/01/22 04:28:16;;;;;;;5.35;1.90;;;;;;;;;;5124030;27;20047;-73
2024/01/22 04:30:43;;;;;;;4.40;1.77;;;;;;;;;;5142609;27;20110;-73
2024/01/22 04:33:13;;;;;;;6.82;2.15;;;;;;;;;;5142017;27;20270;-74
2024/01/22 04:35:40;;;;;;;3.70;1.67;;;;;;;;;;5142046;27;20047;-72
2024/01/22 04:38:07;;;;;;;4.22;2.00;;;;;;;;;;5142279;27;20043;-74
2024/01/22 04:40:33;;;;;;;6.22;2.13;;;;;;;;;;5141663;27;20043;-73
2024/01/22 04:43:03;;;;;;;5.63;2.38;;;;;;;;;;5142083;27;20043;-72
2024/01/22 04:45:30;;;;;;;5.28;1.85;;;;;;;;;;5124032;27;20055;-74
2024/01/22 04:47:57;;;;;;;3.70;2.15;;;;;;;;;;5123828;27;20331;-73
2024/01/22 04:50:24;;;;;;;6.35;2.00;;;;;;;;;;5140906;27;20049;-74
2024/01/22 04:52:51;;;;;;;5.95;2.13;;;;;;;;;;5142011;27;20043;-73
2024/01/22 04:55:20;;;;;;;7.45;2.15;;;;;;;;;;5123434;27;20342;-73
2024/01/22 04:57:50;;;;;;;5.53;2.00;;;;;;;;;;5141665;27;20096;-74
2024/01/22 05:00:17;;;;;;;4.53;1.90;;;;;;;;;;5141997;27;20043;-73
2024/01/22 05:02:44;;;;;;;8.63;2.10;;;;;;;;;;5141924;27;20050;-72
2024/01/22 05:05:13;;;;;;;6.38;2.08;;;;;;;;;;5141395;27;20114;-73
2024/01/22 05:07:39;;;;;;;4.55;2.10;;;;;;;;;;5141942;27;20070;-74
2024/01/22 05:10:09;;;;;;;6.43;1.83;;;;;;;;;;5141299;27;20116;-73
2024/01/22 05:12:37;;;;;;;6.32;2.00;;;;;;;;;;5141681;27;20339;-73
2024/01/22 05:15:04;;;;;;;5.50;1.75;;;;;;;;;;5141256;27;20051;-73
2024/01/22 05:17:32;;;;;;;7.88;1.95;;;;;;;;;;5123428;28;20050;-73
2024/01/22 05:19:59;;;;;;;4.65;2.25;;;;;;;;;;5141453;27;20043;-73
2024/01/22 05:22:27;;;;;;;7.75;2.22;;;;;;;;;;5141720;27;20050;-73
2024/01/22 05:24:54;;;;;;;6.90;2.20;;;;;;;;;;5140978;27;20351;-73
2024/01/22 05:27:20;;;;;;;6.10;2.13;;;;;;;;;;5141461;27;20287;-72
2024/01/22 05:29:47;;;;;;;4.05;1.77;;;;;;;;;;5141673;28;20043;-72
2024/01/22 05:32:14;;;;;;;5.72;1.85;;;;;;;;;;5141352;28;20110;-73
2024/01/22 05:34:40;;;;;;;4.85;2.00;;;;;;;;;;5141070;28;20076;-73
2024/01/22 05:37:07;;;;;;;4.18;1.98;;;;;;;;;;5141509;28;20066;-73
2024/01/22 05:39:34;;;;;;;4.60;1.92;;;;;;;;;;5140697;28;20050;-74
2024/01/22 05:42:00;;;;;;;5.25;1.95;;;;;;;;;;5141196;28;20114;-75
2024/01/22 05:44:27;;;;;;;5.53;2.15;;;;;;;;;;5122973;28;20287;-75
2024/01/22 05:46:54;;;;;;;6.75;2.10;;;;;;;;;;5141410;28;20051;-72
2024/01/22 05:49:21;;;;;;;4.35;2.00;;;;;;;;;;5141084;28;20050;-72
2024/01/22 05:51:48;;;;;;;5.95;2.00;;;;;;;;;;5141225;28;20051;-72
2024/01/22 05:54:15;;;;;;;3.45;1.83;;;;;;;;;;5140772;28;20047;-74
2024/01/22 05:56:42;;;;;;;5.10;2.17;;;;;;;;;;5140985;28;20239;-75
2024/01/22 05:59:09;;;;;;;5.93;1.98;;;;;;;;;;5141330;28;20252;-73
2024/01/22 06:01:36;;;;;;;4.22;1.80;;;;;;;;;;5142547;27;20064;-73
2024/01/22 06:04:06;;;;;;;4.78;1.92;;;;;;;;;;5127181;27;20050;-73
2024/01/22 06:06:33;;;;;;;5.35;1.80;;;;;;;;;;5145120;27;20049;-74
2024/01/22 06:09:00;;;;;;;7.82;1.90;;;;;;;;;;5144743;27;20051;-74
2024/01/22 06:11:28;;;;;;;6.72;2.22;;;;;;;;;;5144757;27;20054;-74
2024/01/22 06:13:55;;;;;;;7.75;1.92;;;;;;;;;;5144821;27;20047;-73
2024/01/22 06:16:28;;;;;;;8.23;1.98;;;;;;;;;;5145063;27;20204;-74
2024/01/22 06:18:56;;;;;;;4.80;1.70;;;;;;;;;;5144776;27;20051;-74
2024/01/22 06:21:23;;;;;;;4.60;2.08;;;;;;;;;;5144772;27;20043;-74
2024/01/22 06:23:50;;;;;;;8.00;1.90;;;;;;;;;;5144524;27;20058;-73
2024/01/22 06:26:17;;;;;;;3.83;1.73;;;;;;;;;;5144419;27;20111;-74
2024/01/22 06:28:47;;;;;;;5.60;2.33;;;;;;;;;;5144585;27;20436;-72
2024/01/22 06:31:14;;;;;;;4.32;1.90;;;;;;;;;;5144780;27;20040;-75
2024/01/22 06:33:41;;;;;;;5.05;1.67;;;;;;;;;;5144495;27;20102;-74
2024/01/22 06:36:08;;;;;;;7.38;1.85;;;;;;;;;;5144486;27;20050;-74
2024/01/22 06:38:35;;;;;;;5.18;1.90;;;;;;;;;;5144482;27;20270;-73
2024/01/22 06:41:02;;;;;;;4.90;1.90;;;;;;;;;;5143973;27;20323;-73
2024/01/22 06:43:29;;;;;;;4.53;1.80;;;;;;;;;;5144337;27;20228;-74
2024/01/22 06:45:55;;;;;;;5.45;1.95;;;;;;;;;;5144481;27;20110;-74
2024/01/22 06:48:22;;;;;;;6.00;1.83;;;;;;;;;;5144862;27;20043;-74
2024/01/22 06:50:49;;;;;;;4.97;2.00;;;;;;;;;;5144149;27;20096;-74
2024/01/22 06:53:16;;;;;;;3.97;1.67;;;;;;;;;;5144327;27;20043;-73
2024/01/22 06:55:42;;;;;;;4.57;1.90;;;;;;;;;;5143630;27;20051;-74
2024/01/22 06:58:09;;;;;;;4.68;1.88;;;;;;;;;;5143891;27;20051;-74
2024/01/22 07:00:36;;;;;;;4.95;1.90;;;;;;;;;;5144173;27;20101;-72
2024/01/22 07:03:04;;;;;;;5.50;2.50;;;;;;;;;;5143890;27;20043;-73
2024/01/22 07:05:32;;;;;;;5.75;2.30;;;;;;;;;;5125955;27;20043;-73
2024/01/22 07:07:59;;;;;;;5.43;2.30;;;;;;;;;;5144179;27;20077;-73
2024/01/22 07:10:26;;;;;;;4.40;2.10;;;;;;;;;;5143574;27;20062;-74
2024/01/22 07:12:54;;;;;;;4.80;2.40;;;;;;;;;;5125087;28;20047;-73
2024/01/22 07:15:22;;;;;;;4.55;2.22;;;;;;;;;;5143722;27;20099;-73
2024/01/22 07:17:50;;;;;;;6.32;2.65;;;;;;;;;;5125727;27;20051;-73
2024/01/22 07:20:17;;;;;;;6.20;2.65;;;;;;;;;;5143574;27;20110;-73
2024/01/22 07:22:45;;;;;;;4.43;2.47;;;;;;;;;;5143604;27;20402;-73
2024/01/22 07:25:15;;;;;;;5.90;2.92;;;;;;;;;;5143282;27;20258;-74
2024/01/22 07:27:45;;;;;;;6.03;3.03;;;;;;;;;;5143693;27;20043;-77
2024/01/22 07:30:12;;;;;;;6.03;2.55;;;;;;;;;;5143460;27;20242;-76
2024/01/22 07:32:41;;;;;;;7.20;3.38;;;;;;;;;;5143438;27;20383;-74
2024/01/22 07:35:10;;;;;;;6.50;2.80;;;;;;;;;;5143350;27;20220;-76
2024/01/22 07:37:42;;;;;;;5.40;2.45;;;;;;;;;;5143518;27;20088;-74
2024/01/22 07:40:09;;;;;;;4.32;2.22;;;;;;;;;;5142808;27;20061;-74
2024/01/22 07:42:38;;;;;;;6.03;2.20;;;;;;;;;;5143589;27;20043;-73
2024/01/22 07:45:06;;;;;;;5.90;2.20;;;;;;;;;;5143264;27;20043;-73
2024/01/22 07:47:34;;;;;;;5.57;2.40;;;;;;;;;;5142977;27;20347;-73
2024/01/22 07:50:05;;;;;;;5.93;2.22;;;;;;;;;;5124972;27;20042;-76
2024/01/22 07:52:33;;;;;;;8.07;2.20;;;;;;;;;;5143415;27;20081;-80
2024/01/22 07:55:01;;;;;;;7.65;2.08;;;;;;;;;;5124548;27;20051;-74
2024/01/22 07:57:29;;;;;;;4.38;2.10;;;;;;;;;;5142517;27;20096;-72
2024/01/22 07:59:56;;;;;;;5.00;1.58;;;;;;;;;;5142985;27;20110;-78
2024/01/22 08:02:23;;;;;;;8.50;2.03;;;;;;;;;;5142896;27;20080;-75
2024/01/22 08:04:50;;;;;;;8.18;2.50;;;;;;;;;;5142858;27;20071;-73
2024/01/22 08:07:20;;;;;;;7.88;1.95;;;;;;;;;;5142938;27;20042;-78
2024/01/22 08:09:47;;;;;;;5.60;2.00;;;;;;;;;;5138721;27;20047;-74
2024/01/22 08:12:14;;;;;;;4.70;1.90;;;;;;;;;;5142478;27;20050;-75
2024/01/22 08:14:41;;;;;;;5.32;2.17;;;;;;;;;;5142282;27;20322;-74
2024/01/22 08:17:08;;;;;;;6.43;2.08;;;;;;;;;;5142521;27;20054;-73
2024/01/22 08:19:34;;;;;;;5.05;1.75;;;;;;;;;;5142447;27;20071;-72
2024/01/22 08:22:02;;;;;;;5.68;2.22;;;;;;;;;;5142499;27;20069;-74
2024/01/22 08:24:32;;;;;;;7.45;2.17;;;;;;;;;;5141771;27;20053;-74
2024/01/22 08:27:00;;;;;;;11.60;2.50;;;;;;;;;;5142049;27;20084;-73
2024/01/22 08:29:27;;;;;;;16.10;3.53;;;;;;;;;;5142410;27;20043;-73
2024/01/22 08:31:54;;;;;;;9.82;2.50;;;;;;;;;;5142442;27;20067;-74
2024/01/22 08:34:21;;;;;;;11.65;2.42;;;;;;;;;;5142162;27;20047;-72
2024/01/22 08:36:48;;;;;;;8.13;1.95;;;;;;;;;;5142150;27;20101;-74
2024/01/22 08:39:15;;;;;;;9.15;2.35;;;;;;;;;;5141721;27;20169;-75
2024/01/22 08:41:42;;;;;;;9.38;2.08;;;;;;;;;;5137238;27;20039;-76
2024/01/22 08:44:09;;;;;;;7.78;2.22;;;;;;;;;;5132573;27;20051;-75
2024/01/22 08:46:37;;;;;;;6.40;2.00;;;;;;;;;;5128275;27;20039;-76
2024/01/22 08:49:04;;;;;;;7.95;2.03;;;;;;;;;;5126357;27;20039;-75
2024/01/22 08:51:31;;;;;;;12.75;2.40;;;;;;;;;;5141741;27;20075;-75
2024/01/22 08:53:58;;;;;;;5.63;2.03;;;;;;;;;;5141384;27;20079;-74
2024/01/22 08:56:25;;;;;;;6.30;1.83;;;;;;;;;;5136630;27;20054;-77
2024/01/22 08:58:52;;;;;;;14.63;2.22;;;;;;;;;;5132153;27;20043;-75
2024/01/22 09:01:19;;;;;;;6.95;2.10;;;;;;;;;;5121148;28;20050;-75
2024/01/22 09:03:45;;;;;;;4.95;1.70;;;;;;;;;;5120509;28;20071;-74
2024/01/22 09:06:12;;;;;;;4.63;1.50;;;;;;;;;;5120228;28;20043;-75
2024/01/22 09:08:40;;;;;;;5.65;1.80;;;;;;;;;;5120602;28;20102;-75
2024/01/22 09:11:08;;;;;;;10.18;1.90;;;;;;;;;;5101857;28;20757;-75
2024/01/22 09:13:37;;;;;;;9.48;1.67;;;;;;;;;;5120874;28;20339;-75
2024/01/22 09:16:05;;;;;;;7.10;1.73;;;;;;;;;;5130344;27;20058;-75
2024/01/22 09:18:32;;;;;;;8.25;2.25;;;;;;;;;;5141023;27;20323;-74
2024/01/22 09:21:00;;;;;;;6.10;1.63;;;;;;;;;;5123157;27;20107;-76
2024/01/22 09:23:27;;;;;;;11.60;1.92;;;;;;;;;;5141169;27;20051;-75
2024/01/22 09:25:53;;;;;;;8.48;2.10;;;;;;;;;;5140976;27;20050;-74
2024/01/22 09:28:21;;;;;;;6.40;1.92;;;;;;;;;;5141043;27;20501;-77
2024/01/22 09:30:48;;;;;;;10.27;2.20;;;;;;;;;;5141064;27;20047;-75
2024/01/22 09:33:16;;;;;;;7.95;2.13;;;;;;;;;;5123004;28;20466;-75
2024/01/22 09:35:43;;;;;;;10.48;2.00;;;;;;;;;;5140372;27;20051;-75
2024/01/22 09:38:09;;;;;;;9.43;1.88;;;;;;;;;;5140499;28;20043;-73
2024/01/22 09:40:36;;;;;;;5.40;1.60;;;;;;;;;;5140906;28;20070;-75
2024/01/22 09:43:04;;;;;;;7.28;1.80;;;;;;;;;;5121899;28;20047;-76
2024/01/22 09:45:33;;;;;;;8.48;2.08;;;;;;;;;;5141051;28;20043;-75
2024/01/22 09:48:00;;;;;;;10.18;1.60;;;;;;;;;;5140958;28;20043;-74
2024/01/22 09:50:27;;;;;;;5.32;1.60;;;;;;;;;;5133062;28;20052;-76
2024/01/22 09:53:08;;;;;;;5.47;1.42;;;;;;;;;;5128555;28;20050;-75
2024/01/22 09:55:41;;;;;;;;;;;;;;;;;;5137183;28;20093;-74
2024/01/22 09:58:09;;;;;;;3.45;1.60;;;;;;;;;;5122119;28;19958;-74
2024/01/22 10:00:37;;;;;;;6.38;1.67;;;;;;;;;;5140739;28;20113;-74
2024/01/22 10:03:05;;;;;;;6.43;1.85;;;;;;;;;;5140378;28;20043;-73
2024/01/22 10:05:32;;;;;;;5.53;1.70;;;;;;;;;;5140633;28;20050;-73
2024/01/22 10:07:59;;;;;;;5.30;1.63;;;;;;;;;;5124497;28;20090;-76
2024/01/22 10:10:26;;;;;;;5.35;1.55;;;;;;;;;;5118104;28;20084;-73
2024/01/22 10:13:03;;;;;;;6.68;1.88;;;;;;;;;;5114005;28;20106;-75
2024/01/22 10:15:32;;;;;;;9.10;1.90;;;;;;;;;;5120164;28;20051;-74
2024/01/22 10:18:11;;;;;;;8.40;1.83;;;;;;;;;;5138336;28;20043;-75
2024/01/22 10:20:38;;;;;;;8.13;1.80;;;;;;;;;;5122216;28;20328;-75
2024/01/22 10:23:05;;;;;;;6.38;1.92;;;;;;;;;;5118186;28;20098;-75
2024/01/22 10:25:32;;;;;;;8.68;2.17;;;;;;;;;;5119757;28;20054;-74
2024/01/22 10:28:16;;;;;;;4.82;1.65;;;;;;;;;;5119633;28;20316;-74
2024/01/22 10:30:46;;;;;;;4.35;1.45;;;;;;;;;;5101801;28;20055;-75
2024/01/22 10:33:17;;;;;;;9.13;2.00;;;;;;;;;;5119630;28;20048;-74
2024/01/22 10:35:46;;;;;;;8.13;2.20;;;;;;;;;;5118805;28;20164;-73
2024/01/22 10:38:18;;;;;;;7.97;1.67;;;;;;;;;;5118573;28;20111;-75
2024/01/22 10:40:47;;;;;;;5.20;1.45;;;;;;;;;;5101086;28;20228;-73
2024/01/22 10:43:20;;;;;;;6.45;1.48;;;;;;;;;;5124526;28;20046;-74
2024/01/22 10:45:48;;;;;;;6.95;1.55;;;;;;;;;;5122400;28;20089;-74
2024/01/22 10:48:17;;;;;;;8.05;1.85;;;;;;;;;;5140713;27;20106;-74
2024/01/22 10:51:01;;;;;;;6.45;1.88;;;;;;;;;;5133536;27;20220;-75
2024/01/22 10:53:28;;;;;;;6.00;1.80;;;;;;;;;;5104655;28;20048;-76
2024/01/22 10:56:10;;;;;;;7.82;1.83;;;;;;;;;;5104911;28;20048;-76
2024/01/22 10:58:41;;;;;;;5.57;1.60;;;;;;;;;;5129307;27;20047;-71
2024/01/22 11:01:14;;;;;;;5.38;1.50;;;;;;;;;;5144577;27;20347;-74
2024/01/22 11:03:47;;;;;;;7.18;1.70;;;;;;;;;;5140643;27;20344;-74
2024/01/22 11:06:20;;;;;;;8.25;1.63;;;;;;;;;;5143444;27;20054;-73
2024/01/22 11:08:54;;;;;;;6.78;1.85;;;;;;;;;;5142734;27;20054;-75
2024/01/22 11:11:24;;;;;;;8.15;2.10;;;;;;;;;;5125103;27;20414;-73
2024/01/22 11:13:55;;;;;;;;;;;;;;;;;;5117039;28;20103;-74
2024/01/22 11:16:23;;;;;;;6.63;1.90;;;;;;;;;;5127386;27;20134;-76
2024/01/22 11:18:59;;;;;;;6.00;1.67;;;;;;;;;;5113257;28;20374;-75
2024/01/22 11:21:39;;;;;;;10.05;2.58;;;;;;;;;;5123567;27;20047;-76
2024/01/22 11:24:13;;;;;;;7.93;2.00;;;;;;;;;;5129461;27;20270;-74
2024/01/22 11:26:52;;;;;;;9.52;2.10;;;;;;;;;;5120154;28;20384;-73
2024/01/22 11:29:25;;;;;;;10.05;2.00;;;;;;;;;;5122243;28;20040;-75
2024/01/22 11:31:52;;;;;;;6.80;1.80;;;;;;;;;;5139491;27;20070;-74
2024/01/22 11:34:38;;;;;;;9.88;2.22;;;;;;;;;;5141283;27;20078;-75
2024/01/22 11:37:08;;;;;;;7.88;1.98;;;;;;;;;;5131306;27;20274;-75
2024/01/22 11:39:43;;;;;;;5.13;1.77;;;;;;;;;;5132940;27;20051;-73
2024/01/22 11:42:16;;;;;;;8.00;1.90;;;;;;;;;;5133053;27;20040;-78
2024/01/22 11:44:48;;;;;;;42.13;3.45;;;;;;;;;;5140589;27;20047;-75
2024/01/22 11:47:19;;;;;;;19.15;2.40;;;;;;;;;;5126009;27;20155;-76
2024/01/22 11:49:46;;;;;;;8.95;2.08;;;;;;;;;;5138385;27;20067;-73
2024/01/22 11:52:17;;;;;;;6.50;2.00;;;;;;;;;;5142806;27;20327;-77
2024/01/22 11:54:52;;;;;;;11.32;2.33;;;;;;;;;;5124285;27;20054;-74
2024/01/22 11:57:19;;;;;;;8.35;2.35;;;;;;;;;;5124547;27;20043;-74
2024/01/22 11:59:58;;;;;;;8.98;2.00;;;;;;;;;;5142105;27;20362;-74
2024/01/22 12:02:25;;;;;;;11.38;1.95;;;;;;;;;;5124728;27;20096;-75
2024/01/22 12:05:02;;;;;;;7.40;1.75;;;;;;;;;;5124218;27;20448;-74
2024/01/22 12:07:35;;;;;;;10.68;2.40;;;;;;;;;;5142604;27;20043;-73
2024/01/22 12:10:04;;;;;;;7.32;1.73;;;;;;;;;;5125977;27;20126;-75
2024/01/22 12:12:31;;;;;;;7.20;1.70;;;;;;;;;;5119652;28;20043;-75
2024/01/22 12:14:59;;;;;;;5.03;1.77;;;;;;;;;;5121555;28;20111;-71
2024/01/22 12:17:26;;;;;;;6.57;1.90;;;;;;;;;;5135424;27;20051;-76
2024/01/22 12:19:55;;;;;;;7.22;2.22;;;;;;;;;;5141907;27;20127;-75
2024/01/22 12:22:26;;;;;;;4.43;1.65;;;;;;;;;;5138392;27;20114;-73
2024/01/22 12:25:07;;;;;;;8.15;1.65;;;;;;;;;;5132340;27;20429;-76
2024/01/22 12:27:35;;;;;;;5.82;2.00;;;;;;;;;;5130076;27;20052;-77
2024/01/22 12:30:08;;;;;;;7.50;1.73;;;;;;;;;;5120985;28;20046;-76
2024/01/22 12:32:37;;;;;;;6.70;1.73;;;;;;;;;;5121604;28;20255;-74
2024/01/22 12:35:06;;;;;;;10.40;2.10;;;;;;;;;;5120965;28;20103;-76
2024/01/22 12:37:34;;;;;;;7.13;1.88;;;;;;;;;;5103253;28;20082;-74
2024/01/22 12:40:05;;;;;;;12.07;2.03;;;;;;;;;;5120820;28;20053;-74
2024/01/22 12:42:32;;;;;;;6.07;1.73;;;;;;;;;;5124482;27;20047;-75
2024/01/22 12:45:00;;;;;;;6.05;1.85;;;;;;;;;;5122444;27;20050;-74
2024/01/22 12:47:29;;;;;;;5.75;1.80;;;;;;;;;;5120781;28;20168;-74
2024/01/22 12:50:00;;;;;;;7.10;2.20;;;;;;;;;;5129457;27;20039;-77
2024/01/22 12:52:28;;;;;;;5.65;1.70;;;;;;;;;;5123433;27;20047;-73
2024/01/22 12:54:55;;;;;;;8.80;2.40;;;;;;;;;;5141084;27;20043;-74
2024/01/22 12:57:23;;;;;;;4.50;1.60;;;;;;;;;;5130437;27;20047;-76
2024/01/22 12:59:50;;;;;;;7.63;1.80;;;;;;;;;;5102772;28;20047;-73
2024/01/22 13:02:17;;;;;;;6.38;2.33;;;;;;;;;;5121022;28;20088;-74
2024/01/22 13:04:44;;;;;;;8.25;1.80;;;;;;;;;;5120813;28;20281;-71
2024/01/22 13:07:13;;;;;;;3.85;1.80;;;;;;;;;;5103090;28;20110;-77
2024/01/22 13:09:40;;;;;;;9.55;2.72;;;;;;;;;;5120174;28;20050;-74
2024/01/22 13:12:08;;;;;;;6.07;2.00;;;;;;;;;;5119986;28;20103;-73
2024/01/22 13:14:35;;;;;;;7.05;2.35;;;;;;;;;;5102458;28;20058;-76
2024/01/22 13:17:08;;;;;;;10.27;2.30;;;;;;;;;;5112912;27;20057;-77
2024/01/22 13:19:38;;;;;;;8.85;2.42;;;;;;;;;;5124482;27;20111;-76
2024/01/22 13:22:09;;;;;;;6.60;2.20;;;;;;;;;;5119972;28;20050;-75
2024/01/22 13:24:36;;;;;;;6.85;1.90;;;;;;;;;;5136581;27;20239;-77
2024/01/22 13:27:03;;;;;;;7.00;1.80;;;;;;;;;;5138302;27;20043;-78
2024/01/22 13:29:30;;;;;;;7.65;2.20;;;;;;;;;;5120179;28;20093;-74
2024/01/22 13:31:57;;;;;;;7.25;2.20;;;;;;;;;;5135993;27;20079;-72
2024/01/22 13:34:24;;;;;;;6.15;1.92;;;;;;;;;;5141282;28;20066;-76
2024/01/22 13:36:51;;;;;;;10.45;2.30;;;;;;;;;;5141069;27;20085;-78
2024/01/22 13:39:19;;;;;;;7.05;2.10;;;;;;;;;;5140292;28;20055;-79
2024/01/22 13:41:47;;;;;;;6.82;2.17;;;;;;;;;;5140946;28;20088;-78
2024/01/22 13:44:15;;;;;;;9.15;2.53;;;;;;;;;;5135691;28;20096;-74
2024/01/22 13:46:42;;;;;;;8.55;2.10;;;;;;;;;;5140959;27;20043;-81
2024/01/22 13:49:09;;;;;;;10.75;2.53;;;;;;;;;;5140805;27;20078;-78
2024/01/22 13:51:42;;;;;;;8.10;1.90;;;;;;;;;;5140529;28;20088;-78
2024/01/22 13:54:09;;;;;;;4.35;2.15;;;;;;;;;;5122417;28;20096;-76
2024/01/22 13:56:38;;;;;;;7.13;2.17;;;;;;;;;;5139099;28;20047;-71
2024/01/22 13:59:07;;;;;;;13.20;2.70;;;;;;;;;;5120186;28;20119;-73
2024/01/22 14:01:34;;;;;;;9.38;2.72;;;;;;;;;;5120020;28;20080;-77
2024/01/22 14:04:01;;;;;;;9.75;2.83;;;;;;;;;;5120192;28;20051;-73
2024/01/22 14:06:28;;;;;;;6.43;2.13;;;;;;;;;;5134198;28;20039;-72
2024/01/22 14:08:55;;;;;;;10.82;3.47;;;;;;;;;;5140003;28;20081;-72
2024/01/22 14:11:22;;;;;;;8.23;2.30;;;;;;;;;;5140353;28;20047;-72
2024/01/22 14:13:49;;;;;;;6.47;2.00;;;;;;;;;;5137388;28;20047;-77
2024/01/22 14:16:17;;;;;;;7.72;2.72;;;;;;;;;;5123760;28;20051;-74
2024/01/22 14:18:44;;;;;;;11.05;2.40;;;;;;;;;;5113296;28;20355;-76
2024/01/22 14:21:13;;;;;;;9.10;2.40;;;;;;;;;;5119620;28;20345;-76
2024/01/22 14:23:40;;;;;;;6.95;2.15;;;;;;;;;;5122732;28;20071;-76
2024/01/22 14:26:09;;;;;;;8.40;2.38;;;;;;;;;;5105814;28;20078;-78
2024/01/22 14:28:36;;;;;;;6.25;2.42;;;;;;;;;;5123645;28;20043;-77
2024/01/22 14:31:04;;;;;;;11.40;2.95;;;;;;;;;;5123273;28;20043;-81
2024/01/22 14:33:31;;;;;;;7.18;2.67;;;;;;;;;;5105526;28;20055;-76
2024/01/22 14:35:58;;;;;;;7.03;2.28;;;;;;;;;;5123773;28;20051;-75
2024/01/22 14:38:26;;;;;;;7.43;2.42;;;;;;;;;;5123412;28;20051;-74
2024/01/22 14:41:00;;;;;;;11.50;2.72;;;;;;;;;;5123017;28;20043;-76
2024/01/22 14:43:31;;;;;;;9.50;2.78;;;;;;;;;;5123311;28;20050;-77
2024/01/22 14:45:57;;;;;;;11.63;2.88;;;;;;;;;;5105131;28;20044;-74
2024/01/22 14:48:25;;;;;;;6.68;2.80;;;;;;;;;;5105553;28;20090;-76